Tor Viking — SLJT — position and weather

sailwx.info

Track history (hours):
 
Tides and Currents Weather Stations Pressure Air Temp Water Temp Dewpoint Dewpoint Depression Visibility Wind Speed Wind Dir Waves Ship Positions

Tor Viking

Last reported at 2016-Jul-30 01:33 UTC. Time now 2016-Jul-30 01:57 UTC.
Position N 56°10' E 012°24'.

Length 93 m; draft 7 m.

Type: Towing. MMSI: 266004000.

Date/timePositionNaut miles runAvg speedWind from/ knotsBaromVisibWave heightAir tempDewpointWater temp
2016-Jul-30 01:33N 56°10' E 012°24'8 8.1
2016-Jul-30 00:33N 56°14' E 012°12'32 7.7
2016-Jul-29 20:22N 56°45' E 011°51'7 8.3
2016-Jul-29 19:33N 56°51' E 011°48'8 8.3
2016-Jul-29 18:33N 56°59' E 011°43'24 8.0
2016-Jul-29 15:33N 57°21' E 011°29'9 8.9
2016-Jul-29 14:33N 57°29' E 011°21'10 9.5
2016-Jul-29 13:34N 57°36' E 011°08'1110.2
2016-Jul-29 12:30N 57°43' E 010°53'9 9.7
2016-Jul-29 11:32N 57°48' E 010°38'41210.6
2016-Jul-27 20:33N 57°09' W 002°05'0 0.0
2016-Jul-27 19:33N 57°09' W 002°05'0 0.0
2016-Jul-27 18:34N 57°09' W 002°05'0 0.0
2016-Jul-27 02:27N 57°09' W 002°05'20 4.8
2016-Jul-26 22:23N 57°24' W 001°43'5 6.2
2016-Jul-26 21:33N 57°29' W 001°39'8 7.6
2016-Jul-26 20:34N 57°37' W 001°38'13 9.9
2016-Jul-26 19:18N 57°46' W 001°53'3 0.1
2016-Jul-25 11:33N 57°46' W 001°59'155 4.4
2016-Jul-24 00:33N 56°34' E 002°15'5 4.8
2016-Jul-23 23:34N 56°32' E 002°23'5 4.8
2016-Jul-23 22:33N 56°30' E 002°31'  
2016-Jul-21 18:28N 57°09' W 002°02'2 2.1
2016-Jul-21 17:33N 57°08' W 002°05'0 0.0
2016-Jul-21 16:33N 57°08' W 002°05'0 0.0
2016-Jul-21 15:27N 57°08' W 002°05'0 0.0
2016-Jul-21 14:33N 57°08' W 002°05'0 0.0
2016-Jul-21 13:33N 57°08' W 002°05'0 0.0
2016-Jul-21 12:33N 57°08' W 002°05'0 0.0
2016-Jul-21 11:33N 57°08' W 002°05'0 0.0
2016-Jul-21 10:33N 57°08' W 002°05'0 0.0
2016-Jul-21 09:33N 57°08' W 002°05'0 0.0
2016-Jul-21 08:33N 57°08' W 002°05'0 0.0
2016-Jul-21 07:33N 57°08' W 002°05'0 0.0
2016-Jul-21 06:33N 57°08' W 002°05'0 0.0
2016-Jul-21 05:33N 57°08' W 002°05'0 0.0
2016-Jul-21 04:33N 57°08' W 002°05'0 0.0
2016-Jul-21 03:33N 57°08' W 002°05'0 0.0
2016-Jul-21 02:33N 57°08' W 002°05'0 0.0
2016-Jul-21 01:33N 57°08' W 002°05'0 0.0
2016-Jul-21 00:31N 57°08' W 002°05'0 0.0
2016-Jul-20 23:33N 57°08' W 002°05'21 3.0
2016-Jul-20 16:33N 57°25' W 001°39'10 9.9
2016-Jul-20 15:33N 57°34' W 001°37'  
Track history (hours):
 
Tides and Currents Weather Stations Pressure Air Temp Water Temp Dewpoint Dewpoint Depression Visibility Wind Speed Wind Dir Waves Ship Positions

Tor Viking

Last reported at 2016-Jul-30 01:33 UTC. Time now 2016-Jul-30 01:57 UTC.
Position N 56°10' E 012°24'.

Length 93 m; draft 7 m.

Type: Towing. MMSI: 266004000.

Date/timePositionNaut miles runAvg speedWind from/ knotsBaromVisibWave heightAir tempDewpointWater temp
2016-Jul-30 01:33N 56°10' E 012°24'8 8.1
2016-Jul-30 00:33N 56°14' E 012°12'32 7.7
2016-Jul-29 20:22N 56°45' E 011°51'7 8.3
2016-Jul-29 19:33N 56°51' E 011°48'8 8.3
2016-Jul-29 18:33N 56°59' E 011°43'24 8.0
2016-Jul-29 15:33N 57°21' E 011°29'9 8.9
2016-Jul-29 14:33N 57°29' E 011°21'10 9.5
2016-Jul-29 13:34N 57°36' E 011°08'1110.2
2016-Jul-29 12:30N 57°43' E 010°53'9 9.7
2016-Jul-29 11:32N 57°48' E 010°38'41210.6
2016-Jul-27 20:33N 57°09' W 002°05'0 0.0
2016-Jul-27 19:33N 57°09' W 002°05'0 0.0
2016-Jul-27 18:34N 57°09' W 002°05'0 0.0
2016-Jul-27 02:27N 57°09' W 002°05'20 4.8
2016-Jul-26 22:23N 57°24' W 001°43'5 6.2
2016-Jul-26 21:33N 57°29' W 001°39'8 7.6
2016-Jul-26 20:34N 57°37' W 001°38'13 9.9
2016-Jul-26 19:18N 57°46' W 001°53'3 0.1
2016-Jul-25 11:33N 57°46' W 001°59'155 4.4
2016-Jul-24 00:33N 56°34' E 002°15'5 4.8
2016-Jul-23 23:34N 56°32' E 002°23'5 4.8
2016-Jul-23 22:33N 56°30' E 002°31'  
2016-Jul-21 18:28N 57°09' W 002°02'2 2.1
2016-Jul-21 17:33N 57°08' W 002°05'0 0.0
2016-Jul-21 16:33N 57°08' W 002°05'0 0.0
2016-Jul-21 15:27N 57°08' W 002°05'0 0.0
2016-Jul-21 14:33N 57°08' W 002°05'0 0.0
2016-Jul-21 13:33N 57°08' W 002°05'0 0.0
2016-Jul-21 12:33N 57°08' W 002°05'0 0.0
2016-Jul-21 11:33N 57°08' W 002°05'0 0.0
2016-Jul-21 10:33N 57°08' W 002°05'0 0.0
2016-Jul-21 09:33N 57°08' W 002°05'0 0.0
2016-Jul-21 08:33N 57°08' W 002°05'0 0.0
2016-Jul-21 07:33N 57°08' W 002°05'0 0.0
2016-Jul-21 06:33N 57°08' W 002°05'0 0.0
2016-Jul-21 05:33N 57°08' W 002°05'0 0.0
2016-Jul-21 04:33N 57°08' W 002°05'0 0.0
2016-Jul-21 03:33N 57°08' W 002°05'0 0.0
2016-Jul-21 02:33N 57°08' W 002°05'0 0.0
2016-Jul-21 01:33N 57°08' W 002°05'0 0.0
2016-Jul-21 00:31N 57°08' W 002°05'0 0.0
2016-Jul-20 23:33N 57°08' W 002°05'21 3.0
2016-Jul-20 16:33N 57°25' W 001°39'10 9.9
2016-Jul-20 15:33N 57°34' W 001°37'  

Dump ship's entire track history